createdAt,value
2022-10-05T00:01:04.688Z,27.10
2022-10-05T00:03:38.563Z,27.00
2022-10-05T00:06:11.581Z,27.00
2022-10-05T00:08:45.307Z,26.90
2022-10-05T00:11:17.768Z,26.90
2022-10-05T00:13:48.627Z,26.80
2022-10-05T00:16:22.958Z,26.80
2022-10-05T00:18:55.030Z,26.70
2022-10-05T00:21:35.335Z,26.50
2022-10-05T00:24:12.164Z,26.50
2022-10-05T00:26:47.356Z,26.40
2022-10-05T00:29:24.961Z,26.20
2022-10-05T00:31:56.189Z,26.30
2022-10-05T00:34:28.376Z,26.20
2022-10-05T00:37:02.114Z,26.10
2022-10-05T00:39:32.323Z,25.90
2022-10-05T00:42:21.993Z,25.90
2022-10-05T00:45:22.863Z,25.60
2022-10-05T00:48:16.063Z,25.50
2022-10-05T00:51:09.674Z,25.30
2022-10-05T00:54:18.522Z,25.10
2022-10-05T00:57:07.557Z,25.10
2022-10-05T00:59:59.980Z,24.90
2022-10-05T01:02:47.418Z,24.80
2022-10-05T01:05:47.029Z,24.70
2022-10-05T01:08:46.290Z,24.70
2022-10-05T01:11:54.563Z,24.50
2022-10-05T01:14:45.261Z,24.50
2022-10-05T01:17:53.110Z,24.40
2022-10-05T01:21:01.839Z,24.20
2022-10-05T01:24:06.874Z,24.10
2022-10-05T01:27:11.007Z,24.00
2022-10-05T01:30:14.557Z,23.90
2022-10-05T01:32:57.268Z,23.80
2022-10-05T01:36:07.917Z,23.70
2022-10-05T01:39:01.117Z,23.70
2022-10-05T01:42:00.190Z,23.60
2022-10-05T01:45:29.466Z,23.50
2022-10-05T01:48:21.424Z,23.40
2022-10-05T01:51:06.652Z,23.30
2022-10-05T01:53:55.295Z,23.30
2022-10-05T01:56:39.667Z,23.20
2022-10-05T01:59:38.394Z,23.10
2022-10-05T02:02:22.172Z,23.20
2022-10-05T02:05:13.136Z,23.20
2022-10-05T02:07:49.196Z,23.10
2022-10-05T02:10:53.154Z,23.10
2022-10-05T02:14:12.091Z,23.00
2022-10-05T02:16:47.135Z,23.00
2022-10-05T02:19:27.797Z,22.90
2022-10-05T02:22:09.603Z,22.90
2022-10-05T02:24:56.012Z,22.90
2022-10-05T02:27:57.342Z,22.80
2022-10-05T02:30:31.387Z,22.90
2022-10-05T02:33:11.561Z,22.90
2022-10-05T02:35:43.135Z,23.00
2022-10-05T02:38:15.624Z,23.00
2022-10-05T02:41:16.232Z,23.10
2022-10-05T02:44:13.592Z,23.20
2022-10-05T02:46:56.049Z,23.10
2022-10-05T02:50:03.340Z,23.00
2022-10-05T02:53:18.653Z,22.90
2022-10-05T02:55:51.730Z,22.90
2022-10-05T02:58:31.549Z,22.80
2022-10-05T03:01:14.747Z,22.80
2022-10-05T03:04:20.850Z,22.90
2022-10-05T03:07:24.906Z,22.80
2022-10-05T03:10:10.507Z,22.70
2022-10-05T03:12:57.355Z,22.60
2022-10-05T03:15:50.187Z,22.60
2022-10-05T03:18:30.949Z,22.50
2022-10-05T03:21:46.615Z,22.30
2022-10-05T03:24:36.782Z,22.50
2022-10-05T03:27:26.930Z,22.30
2022-10-05T03:30:13.805Z,22.20
2022-10-05T03:32:51.513Z,22.20
2022-10-05T03:35:34.308Z,22.00
2022-10-05T03:38:27.267Z,22.00
2022-10-05T03:41:16.355Z,22.00
2022-10-05T03:44:02.183Z,22.00
2022-10-05T03:46:59.512Z,21.90
2022-10-05T03:50:08.742Z,22.00
2022-10-05T03:53:05.241Z,22.00
2022-10-05T03:55:43.399Z,22.00
2022-10-05T03:58:21.046Z,21.80
2022-10-05T04:00:58.060Z,21.80
2022-10-05T04:03:44.970Z,21.90
2022-10-05T04:07:02.465Z,21.90
2022-10-05T04:09:38.465Z,21.90
2022-10-05T04:12:37.233Z,21.70
2022-10-05T04:15:24.287Z,21.70
2022-10-05T04:18:08.966Z,21.60
2022-10-05T04:20:47.922Z,21.60
2022-10-05T04:23:47.087Z,21.50
2022-10-05T04:26:33.331Z,21.40
2022-10-05T04:29:27.374Z,21.30
2022-10-05T04:32:15.670Z,21.30
2022-10-05T04:35:13.414Z,21.30
2022-10-05T04:38:28.741Z,21.20
2022-10-05T04:41:23.893Z,21.20
2022-10-05T04:44:04.049Z,21.20
2022-10-05T04:47:02.817Z,21.20
2022-10-05T04:50:07.429Z,21.00
2022-10-05T04:52:59.175Z,21.00
2022-10-05T04:55:57.688Z,21.00
2022-10-05T04:58:41.422Z,20.90
2022-10-05T05:01:42.475Z,20.90
2022-10-05T05:04:43.258Z,20.90
2022-10-05T05:07:19.476Z,20.80
2022-10-05T05:10:08.718Z,20.80
2022-10-05T05:13:12.083Z,20.80
2022-10-05T05:16:15.909Z,20.70
2022-10-05T05:19:20.494Z,20.80
2022-10-05T05:21:59.820Z,20.70
2022-10-05T05:24:51.586Z,20.70
2022-10-05T05:27:47.444Z,20.60
2022-10-05T05:30:52.437Z,20.60
2022-10-05T05:33:31.469Z,20.60
2022-10-05T05:36:24.318Z,20.60
2022-10-05T05:39:10.837Z,20.60
2022-10-05T05:41:50.223Z,20.60
2022-10-05T05:44:45.254Z,20.60
2022-10-05T05:47:29.815Z,20.60
2022-10-05T05:50:13.681Z,20.60
2022-10-05T05:52:46.471Z,20.50
2022-10-05T05:55:30.682Z,20.40
2022-10-05T05:58:40.255Z,20.40
2022-10-05T06:01:39.535Z,20.30
2022-10-05T06:04:46.798Z,20.20
2022-10-05T06:07:30.729Z,20.20
2022-10-05T06:10:07.886Z,20.20
2022-10-05T06:12:51.287Z,20.10
2022-10-05T06:16:10.533Z,20.10
2022-10-05T06:18:47.031Z,20.20
2022-10-05T06:21:26.263Z,20.10
2022-10-05T06:24:30.377Z,20.20
2022-10-05T06:27:10.422Z,20.20
2022-10-05T06:30:05.353Z,20.20
2022-10-05T06:32:49.774Z,20.20
2022-10-05T06:35:47.841Z,20.10
2022-10-05T06:38:57.422Z,20.10
2022-10-05T06:41:49.334Z,20.10
2022-10-05T06:44:41.724Z,20.10
2022-10-05T06:48:05.193Z,19.90
2022-10-05T06:51:36.759Z,20.00
2022-10-05T06:54:58.112Z,20.00
2022-10-05T06:57:53.237Z,19.80
2022-10-05T07:00:36.443Z,19.80
2022-10-05T07:03:15.482Z,19.80
2022-10-05T07:06:20.567Z,19.80
2022-10-05T07:09:04.259Z,19.70
2022-10-05T07:12:10.152Z,19.80
2022-10-05T07:14:55.581Z,19.80
2022-10-05T07:17:59.663Z,19.60
2022-10-05T07:20:55.529Z,19.60
2022-10-05T07:23:33.788Z,19.50
2022-10-05T07:26:27.688Z,19.50
2022-10-05T07:29:12.142Z,19.50
2022-10-05T07:32:07.635Z,19.40
2022-10-05T07:35:35.884Z,19.50
2022-10-05T07:38:15.080Z,19.40
2022-10-05T07:41:12.761Z,19.40
2022-10-05T07:44:12.348Z,19.40
2022-10-05T07:46:52.696Z,19.30
2022-10-05T07:50:08.135Z,19.30
2022-10-05T07:52:57.902Z,19.20
2022-10-05T07:55:43.327Z,19.30
2022-10-05T07:58:29.683Z,19.20
2022-10-05T08:01:06.418Z,19.20
2022-10-05T08:04:13.250Z,19.20
2022-10-05T08:06:52.024Z,19.20
2022-10-05T08:10:01.723Z,19.20
2022-10-05T08:13:02.491Z,19.10
2022-10-05T08:15:57.829Z,19.00
2022-10-05T08:18:49.533Z,19.00
2022-10-05T08:21:39.202Z,18.90
2022-10-05T08:24:41.255Z,18.90
2022-10-05T08:27:19.588Z,18.90
2022-10-05T08:30:20.756Z,18.80
2022-10-05T08:32:52.704Z,18.80
2022-10-05T08:35:48.809Z,18.80
2022-10-05T08:38:24.819Z,18.80
2022-10-05T08:41:09.290Z,18.70
2022-10-05T08:43:59.274Z,18.70
2022-10-05T08:47:06.749Z,18.60
2022-10-05T08:49:58.677Z,18.50
2022-10-05T08:52:35.026Z,18.50
2022-10-05T08:55:51.074Z,18.50
2022-10-05T08:58:36.308Z,18.40
2022-10-05T09:01:08.226Z,18.40
2022-10-05T09:04:04.102Z,18.40
2022-10-05T09:07:11.228Z,18.40
2022-10-05T09:10:01.834Z,18.40
2022-10-05T09:12:49.355Z,18.40
2022-10-05T09:15:49.873Z,18.40
2022-10-05T09:18:41.374Z,18.30
2022-10-05T09:21:30.789Z,18.30
2022-10-05T09:24:11.989Z,18.20
2022-10-05T09:26:46.704Z,18.20
2022-10-05T09:29:55.650Z,18.10
2022-10-05T09:33:01.645Z,18.10
2022-10-05T09:36:01.607Z,18.10
2022-10-05T09:38:56.320Z,18.10
2022-10-05T09:41:30.544Z,18.10
2022-10-05T09:44:13.619Z,18.10
2022-10-05T09:46:53.041Z,18.10
2022-10-05T09:50:03.781Z,18.10
2022-10-05T09:53:14.653Z,18.10
2022-10-05T09:59:36.787Z,18.10
2022-10-05T10:02:21.025Z,18.00
2022-10-05T10:05:22.253Z,17.90
2022-10-05T10:08:17.017Z,17.90
2022-10-05T10:11:17.563Z,17.90
2022-10-05T10:14:11.040Z,17.80
2022-10-05T10:16:58.957Z,17.90
2022-10-05T10:19:49.292Z,17.80
2022-10-05T10:22:31.919Z,17.70
2022-10-05T10:25:36.576Z,17.80
2022-10-05T10:28:40.201Z,17.90
2022-10-05T10:31:31.371Z,17.90
2022-10-05T10:34:04.925Z,17.90
2022-10-05T10:36:53.790Z,17.70
2022-10-05T10:40:04.841Z,17.50
2022-10-05T10:42:49.744Z,17.50
2022-10-05T10:45:46.061Z,17.40
2022-10-05T10:48:30.197Z,17.50
2022-10-05T10:51:20.978Z,17.50
2022-10-05T10:54:08.612Z,17.40
2022-10-05T10:56:51.169Z,17.50
2022-10-05T10:59:38.649Z,17.40
2022-10-05T11:02:29.619Z,17.40
2022-10-05T11:05:04.628Z,17.40
2022-10-05T11:07:46.112Z,17.40
2022-10-05T11:10:26.746Z,17.30
2022-10-05T11:13:37.783Z,17.30
2022-10-05T11:16:49.108Z,17.30
2022-10-05T11:20:02.573Z,17.30
2022-10-05T11:22:51.540Z,17.30
2022-10-05T11:25:43.880Z,17.30
2022-10-05T11:28:45.646Z,17.20
2022-10-05T11:31:35.123Z,17.20
2022-10-05T11:34:19.898Z,17.30
2022-10-05T11:37:18.519Z,17.20
2022-10-05T11:40:27.422Z,17.20
2022-10-05T11:43:52.093Z,17.20
2022-10-05T11:46:41.923Z,17.30
2022-10-05T11:49:26.855Z,17.20
2022-10-05T11:52:12.743Z,17.20
2022-10-05T11:57:59.116Z,17.30
2022-10-05T12:00:48.032Z,17.20
2022-10-05T12:03:34.300Z,17.20
2022-10-05T12:06:22.986Z,17.20
2022-10-05T12:09:34.634Z,17.10
2022-10-05T12:12:23.483Z,17.10
2022-10-05T12:15:20.302Z,17.10
2022-10-05T12:18:14.524Z,17.10
2022-10-05T12:20:56.799Z,17.10
2022-10-05T12:23:42.178Z,17.10
2022-10-05T12:26:26.884Z,17.10
2022-10-05T12:29:08.122Z,17.00
2022-10-05T12:31:41.891Z,17.10
2022-10-05T12:34:34.772Z,17.00
2022-10-05T12:37:15.134Z,17.00
2022-10-05T12:39:56.706Z,17.00
2022-10-05T12:43:02.252Z,17.00
2022-10-05T12:45:58.154Z,17.00
2022-10-05T12:48:34.891Z,17.10
2022-10-05T12:51:20.194Z,17.00
2022-10-05T12:54:20.523Z,17.10
2022-10-05T12:57:07.417Z,17.20
2022-10-05T12:59:54.944Z,17.20
2022-10-05T13:02:48.409Z,17.20
2022-10-05T13:05:43.092Z,17.20
2022-10-05T13:08:36.936Z,17.30
2022-10-05T13:11:22.704Z,17.30
2022-10-05T13:14:17.185Z,17.40
2022-10-05T13:17:00.357Z,17.50
2022-10-05T13:19:59.803Z,17.60
2022-10-05T13:22:59.353Z,17.70
2022-10-05T13:25:39.672Z,17.80
2022-10-05T13:28:20.700Z,18.00
2022-10-05T13:31:04.386Z,18.00
2022-10-05T13:33:52.596Z,18.10
2022-10-05T13:36:40.806Z,18.20
2022-10-05T13:39:34.300Z,18.30
2022-10-05T13:42:26.412Z,18.40
2022-10-05T13:45:05.045Z,18.50
2022-10-05T13:48:01.567Z,18.50
2022-10-05T13:50:38.371Z,18.60
2022-10-05T13:53:31.106Z,18.70
2022-10-05T13:56:10.028Z,18.80
2022-10-05T13:59:26.287Z,18.90
2022-10-05T14:02:06.794Z,19.10
2022-10-05T14:04:52.545Z,19.20
2022-10-05T14:07:45.506Z,19.30
2022-10-05T14:10:29.768Z,19.40
2022-10-05T14:13:03.176Z,19.50
2022-10-05T14:15:42.070Z,19.50
2022-10-05T14:18:29.275Z,19.70
2022-10-05T14:21:09.604Z,19.80
2022-10-05T14:23:47.726Z,19.80
2022-10-05T14:26:39.706Z,20.00
2022-10-05T14:29:16.546Z,20.20
2022-10-05T14:32:06.776Z,20.30
2022-10-05T14:34:45.000Z,20.40
2022-10-05T14:37:22.335Z,20.40
2022-10-05T14:40:06.384Z,20.40
2022-10-05T14:42:47.340Z,20.50
2022-10-05T14:45:30.764Z,20.70
2022-10-05T14:48:12.186Z,20.80
2022-10-05T14:50:56.924Z,21.00
2022-10-05T14:53:38.855Z,21.20
2022-10-05T14:56:37.613Z,21.40
2022-10-05T14:59:28.853Z,21.50
2022-10-05T15:02:17.188Z,21.60
2022-10-05T15:05:03.616Z,21.60
2022-10-05T15:07:39.598Z,21.70
2022-10-05T15:10:32.818Z,21.90
2022-10-05T15:13:21.049Z,22.20
2022-10-05T15:16:20.948Z,22.40
2022-10-05T15:19:09.880Z,22.40
2022-10-05T15:21:57.097Z,22.40
2022-10-05T15:24:43.474Z,22.50
2022-10-05T15:27:27.957Z,22.50
2022-10-05T15:30:13.211Z,22.70
2022-10-05T15:33:12.475Z,22.90
2022-10-05T15:36:05.170Z,23.00
2022-10-05T15:39:13.752Z,23.00
2022-10-05T15:42:00.140Z,23.00
2022-10-05T15:45:07.151Z,23.30
2022-10-05T15:47:57.838Z,23.00
2022-10-05T15:50:48.751Z,23.00
2022-10-05T15:53:22.588Z,23.50
2022-10-05T15:56:27.794Z,23.70
2022-10-05T15:59:21.329Z,23.90
2022-10-05T16:02:02.746Z,24.00
2022-10-05T16:05:12.099Z,23.90
2022-10-05T16:08:12.579Z,23.80
2022-10-05T16:10:48.557Z,24.00
2022-10-05T16:13:25.791Z,24.00
2022-10-05T16:16:25.229Z,24.00
2022-10-05T16:19:24.694Z,24.20
2022-10-05T16:22:31.451Z,24.30
2022-10-05T16:25:27.161Z,24.40
2022-10-05T16:28:09.050Z,24.40
2022-10-05T16:31:00.219Z,24.40
2022-10-05T16:33:46.617Z,24.50
2022-10-05T16:37:11.226Z,24.40
2022-10-05T16:40:14.703Z,24.80
2022-10-05T16:43:09.985Z,24.90
2022-10-05T16:45:48.647Z,24.60
2022-10-05T16:48:31.314Z,24.70
2022-10-05T16:51:12.246Z,24.60
2022-10-05T16:54:15.118Z,24.60
2022-10-05T16:57:27.984Z,25.00
2022-10-05T17:00:26.264Z,25.20
2022-10-05T17:03:22.989Z,25.30
2022-10-05T17:06:08.008Z,25.10
2022-10-05T17:08:46.253Z,25.50
2022-10-05T17:11:31.823Z,25.50
2022-10-05T17:14:21.780Z,25.20
2022-10-05T17:17:28.234Z,25.40
2022-10-05T17:20:40.221Z,25.50
2022-10-05T17:23:19.031Z,25.50
2022-10-05T17:26:17.944Z,25.60
2022-10-05T17:28:55.107Z,25.10
2022-10-05T17:31:29.282Z,25.10
2022-10-05T17:34:17.287Z,25.10
2022-10-05T17:36:54.876Z,25.60
2022-10-05T17:39:50.153Z,26.00
2022-10-05T17:42:31.262Z,26.10
2022-10-05T17:45:13.741Z,25.90
2022-10-05T17:48:12.242Z,26.00
2022-10-05T17:51:10.749Z,26.00
2022-10-05T17:54:10.515Z,26.00
2022-10-05T17:56:50.228Z,26.30
2022-10-05T17:59:59.430Z,26.40
2022-10-05T18:02:43.696Z,26.40
2022-10-05T18:05:46.260Z,26.50
2022-10-05T18:08:18.694Z,26.60
2022-10-05T18:11:36.684Z,26.60
2022-10-05T18:14:54.936Z,26.50
2022-10-05T18:18:18.282Z,26.10
2022-10-05T18:21:14.482Z,26.00
2022-10-05T18:24:23.620Z,26.50
2022-10-05T18:27:32.087Z,26.70
2022-10-05T18:30:23.988Z,26.70
2022-10-05T18:33:14.011Z,26.50
2022-10-05T18:35:57.012Z,26.70
2022-10-05T18:38:41.252Z,26.90
2022-10-05T18:41:27.707Z,27.00
2022-10-05T18:44:28.754Z,27.00
2022-10-05T18:47:25.788Z,26.90
2022-10-05T18:50:03.129Z,27.20
2022-10-05T18:52:47.746Z,27.30
2022-10-05T18:55:40.351Z,27.20
2022-10-05T18:58:53.326Z,27.30
2022-10-05T19:01:41.083Z,26.60
2022-10-05T19:04:43.565Z,27.00
2022-10-05T19:08:02.538Z,27.30
2022-10-05T19:10:48.388Z,27.30
2022-10-05T19:13:58.597Z,27.20
2022-10-05T19:16:56.312Z,27.50
2022-10-05T19:19:40.164Z,27.40
2022-10-05T19:22:48.122Z,27.50
2022-10-05T19:26:01.442Z,27.50
2022-10-05T19:29:07.226Z,27.50
2022-10-05T19:32:30.560Z,27.60
2022-10-05T19:35:22.363Z,27.70
2022-10-05T19:40:57.998Z,27.90
2022-10-05T19:43:36.990Z,27.60
2022-10-05T19:46:32.120Z,27.70
2022-10-05T19:49:02.660Z,27.90
2022-10-05T19:51:39.134Z,27.90
2022-10-05T19:54:34.450Z,28.00
2022-10-05T19:57:19.812Z,28.10
2022-10-05T19:59:52.354Z,27.70
2022-10-05T20:02:29.359Z,27.70
2022-10-05T20:05:08.711Z,27.70
2022-10-05T20:07:39.141Z,27.50
2022-10-05T20:10:33.054Z,27.60
2022-10-05T20:13:06.297Z,27.70
2022-10-05T20:15:58.047Z,27.70
2022-10-05T20:19:06.731Z,27.70
2022-10-05T20:21:52.609Z,27.70
2022-10-05T20:24:30.642Z,27.50
2022-10-05T20:27:08.704Z,27.60
2022-10-05T20:29:43.488Z,27.80
2022-10-05T20:32:16.139Z,27.80
2022-10-05T20:34:50.403Z,27.70
2022-10-05T20:37:22.449Z,27.60
2022-10-05T20:39:55.075Z,27.70
2022-10-05T20:42:26.233Z,27.90
2022-10-05T20:45:00.329Z,28.10
2022-10-05T20:47:30.279Z,28.00
2022-10-05T20:50:02.220Z,28.10
2022-10-05T20:52:33.091Z,28.00
2022-10-05T20:55:12.219Z,28.10
2022-10-05T20:57:43.778Z,28.00
2022-10-05T21:00:14.936Z,28.10
2022-10-05T21:02:50.244Z,28.20
2022-10-05T21:05:23.928Z,28.20
2022-10-05T21:07:57.758Z,28.00
2022-10-05T21:10:30.518Z,28.00
2022-10-05T21:13:03.545Z,28.30
2022-10-05T21:15:34.962Z,28.20
2022-10-05T21:18:07.469Z,28.00
2022-10-05T21:20:40.337Z,28.00
2022-10-05T21:23:17.507Z,28.00
2022-10-05T21:25:50.110Z,28.10
2022-10-05T21:28:24.385Z,28.20
2022-10-05T21:30:55.654Z,28.30
2022-10-05T21:33:28.811Z,28.40
2022-10-05T21:36:05.679Z,28.20
2022-10-05T21:38:36.369Z,28.20
2022-10-05T21:41:06.935Z,28.40
2022-10-05T21:43:38.600Z,28.50
2022-10-05T21:46:10.101Z,28.40
2022-10-05T21:48:42.100Z,28.10
2022-10-05T21:51:17.237Z,28.40
2022-10-05T21:53:55.510Z,28.60
2022-10-05T21:56:40.465Z,28.50
2022-10-05T21:59:17.355Z,28.70
2022-10-05T22:01:47.763Z,28.70
2022-10-05T22:04:18.801Z,28.60
2022-10-05T22:06:50.654Z,28.60
2022-10-05T22:09:21.548Z,28.70
2022-10-05T22:11:52.721Z,28.40
2022-10-05T22:14:23.732Z,28.50
2022-10-05T22:16:55.743Z,28.50
2022-10-05T22:19:25.186Z,28.50
2022-10-05T22:21:56.798Z,28.40
2022-10-05T22:24:28.625Z,28.40
2022-10-05T22:27:01.002Z,28.40
2022-10-05T22:29:33.402Z,28.40
2022-10-05T22:32:07.709Z,28.20
2022-10-05T22:34:39.133Z,28.20
2022-10-05T22:37:15.253Z,28.30
2022-10-05T22:39:45.093Z,28.30
2022-10-05T22:42:16.385Z,28.20
2022-10-05T22:44:46.113Z,28.40
2022-10-05T22:47:15.814Z,28.30
2022-10-05T22:49:45.396Z,28.20
2022-10-05T22:52:15.876Z,28.30
2022-10-05T22:54:49.449Z,28.20
2022-10-05T22:57:20.925Z,28.20
2022-10-05T22:59:52.850Z,28.10
2022-10-05T23:02:22.366Z,28.00
2022-10-05T23:04:54.151Z,27.90
2022-10-05T23:07:25.131Z,27.90
2022-10-05T23:09:57.072Z,27.80
2022-10-05T23:12:29.152Z,28.00
2022-10-05T23:14:59.204Z,28.00
2022-10-05T23:17:32.538Z,28.10
2022-10-05T23:20:06.877Z,27.80
2022-10-05T23:22:38.128Z,27.80
2022-10-05T23:25:13.087Z,27.80
2022-10-05T23:27:45.002Z,27.70
2022-10-05T23:30:14.726Z,27.80
2022-10-05T23:32:46.631Z,27.80
2022-10-05T23:35:20.074Z,27.80
2022-10-05T23:37:49.244Z,27.80
2022-10-05T23:40:21.391Z,27.70
2022-10-05T23:42:52.094Z,27.60
2022-10-05T23:45:27.069Z,27.50
2022-10-05T23:47:57.080Z,27.40
2022-10-05T23:50:29.182Z,27.40
2022-10-05T23:53:05.581Z,27.50
2022-10-05T23:55:36.946Z,27.50
2022-10-05T23:58:09.672Z,27.40
